Time;durP1;ratioP1;P1;durP2;ratioP2;P2;SDS_P1;SDS_P2;PMS_P1;PMS_P2;Temp;Humidity;BMP_temperature;BMP_pressure;BME280_temperature;BME280_humidity;BME280_pressure;Samples;Min_cycle;Max_cycle;Signal;HPM_P1;HPM_P2
2023/12/03 00:02:08;;;;;;;12.20;10.77;;;0.20;99.90;;;;;;5017535;28;20210;-79
2023/12/03 00:04:37;;;;;;;11.75;10.75;;;0.30;99.90;;;;;;5017815;28;20198;-80
2023/12/03 00:07:06;;;;;;;11.02;9.65;;;0.30;99.90;;;;;;5017071;28;20822;-79
2023/12/03 00:09:36;;;;;;;10.80;9.90;;;0.30;99.90;;;;;;5019312;28;20190;-79
2023/12/03 00:12:05;;;;;;;10.50;9.50;;;0.30;99.90;;;;;;5017176;28;20293;-79
2023/12/03 00:14:34;;;;;;;10.10;9.20;;;0.30;99.90;;;;;;5018877;28;20213;-78
2023/12/03 00:17:03;;;;;;;9.70;9.00;;;0.20;99.90;;;;;;5021556;28;20234;-79
2023/12/03 00:19:32;;;;;;;9.82;8.70;;;0.20;99.90;;;;;;5018201;28;20269;-79
2023/12/03 00:22:00;;;;;;;8.73;7.95;;;0.10;99.90;;;;;;5020992;28;20211;-79
2023/12/03 00:24:28;;;;;;;9.02;8.23;;;0.10;99.90;;;;;;5019532;28;20313;-79
2023/12/03 00:26:57;;;;;;;8.90;8.00;;;0.10;99.90;;;;;;5019397;28;20223;-79
2023/12/03 00:29:25;;;;;;;9.02;8.13;;;0.10;99.90;;;;;;5017409;28;20194;-78
2023/12/03 00:31:53;;;;;;;8.50;7.70;;;0.10;99.90;;;;;;5016691;28;20191;-80
2023/12/03 00:34:23;;;;;;;9.38;8.68;;;0.10;99.90;;;;;;5017912;28;20198;-79
2023/12/03 00:36:51;;;;;;;10.10;8.13;;;0.10;99.90;;;;;;5017334;28;20826;-79
2023/12/03 00:39:19;;;;;;;8.65;7.95;;;0.10;99.90;;;;;;5013255;28;20345;-79
2023/12/03 00:41:48;;;;;;;7.72;7.22;;;0.10;99.90;;;;;;5018545;28;20236;-79
2023/12/03 00:44:18;;;;;;;8.23;7.68;;;0.10;99.90;;;;;;5018765;28;20198;-78
2023/12/03 00:46:46;;;;;;;9.10;8.38;;;0.10;99.90;;;;;;5017283;28;20276;-79
2023/12/03 00:49:14;;;;;;;8.63;7.88;;;0.00;99.90;;;;;;5012067;28;20222;-79
2023/12/03 00:51:44;;;;;;;10.18;9.18;;;0.00;99.90;;;;;;5017884;28;20198;-77
2023/12/03 00:54:12;;;;;;;9.90;9.15;;;0.00;99.90;;;;;;5017850;28;20202;-79
2023/12/03 00:56:41;;;;;;;8.65;7.95;;;0.10;99.90;;;;;;5019050;28;20223;-79
2023/12/03 00:59:09;;;;;;;8.55;7.95;;;0.10;99.90;;;;;;5015828;28;20219;-80
2023/12/03 01:01:37;;;;;;;8.40;7.70;;;0.10;99.90;;;;;;5016763;28;20214;-80
2023/12/03 01:04:05;;;;;;;8.30;7.35;;;0.10;99.90;;;;;;5016525;28;20206;-79
2023/12/03 01:06:34;;;;;;;10.25;9.20;;;0.10;99.90;;;;;;5015809;28;20218;-80
2023/12/03 01:09:04;;;;;;;9.02;8.10;;;0.00;99.90;;;;;;5019135;28;20224;-79
2023/12/03 01:11:32;;;;;;;8.93;8.02;;;0.00;99.90;;;;;;5017477;28;20195;-78
2023/12/03 01:14:03;;;;;;;8.70;7.90;;;0.00;99.90;;;;;;5018599;28;20225;-79
2023/12/03 01:16:32;;;;;;;9.82;8.98;;;0.00;99.90;;;;;;5014677;28;20739;-78
2023/12/03 01:19:01;;;;;;;9.73;8.93;;;0.00;99.90;;;;;;5015864;28;20218;-79
2023/12/03 01:21:29;;;;;;;8.05;7.47;;;0.00;99.90;;;;;;5013630;28;20202;-80
2023/12/03 01:23:58;;;;;;;8.90;8.20;;;0.10;99.90;;;;;;5018092;28;20214;-81
2023/12/03 01:26:33;;;;;;;9.60;8.70;;;-0.10;99.90;;;;;;5014966;28;20346;-79
2023/12/03 01:29:02;;;;;;;8.10;7.40;;;0.00;99.90;;;;;;5018753;28;20198;-80
2023/12/03 01:31:30;;;;;;;9.32;8.43;;;-0.10;99.90;;;;;;5014797;28;20214;-78
2023/12/03 01:34:00;;;;;;;8.93;8.10;;;-0.10;99.90;;;;;;5017656;28;20198;-79
2023/12/03 01:36:28;;;;;;;8.27;7.43;;;-0.20;99.90;;;;;;5020130;28;20218;-78
2023/12/03 01:38:56;;;;;;;7.40;6.90;;;-0.10;99.90;;;;;;5028600;28;20218;-80
2023/12/03 01:41:25;;;;;;;8.30;7.55;;;-0.10;99.90;;;;;;5019300;28;20229;-80
2023/12/03 01:43:55;;;;;;;7.40;6.90;;;-0.10;99.90;;;;;;5016423;28;20203;-80
2023/12/03 01:46:23;;;;;;;7.82;7.22;;;-0.10;99.90;;;;;;5014253;28;20222;-79
2023/12/03 01:48:52;;;;;;;8.95;8.15;;;0.00;99.90;;;;;;5015013;28;20191;-79
2023/12/03 01:51:21;;;;;;;8.80;7.95;;;-0.10;99.90;;;;;;5018257;28;20195;-79
2023/12/03 01:53:49;;;;;;;6.70;6.20;;;-0.20;99.90;;;;;;5015647;28;20676;-79
2023/12/03 01:56:18;;;;;;;9.38;8.38;;;-0.20;99.90;;;;;;5016795;28;20222;-80
2023/12/03 01:58:46;;;;;;;8.50;7.70;;;-0.10;99.90;;;;;;5015626;28;20199;-80
2023/12/03 02:01:16;;;;;;;8.18;7.53;;;-0.20;99.90;;;;;;5015011;28;20730;-81
2023/12/03 02:03:45;;;;;;;8.23;7.63;;;-0.20;99.90;;;;;;5017320;28;20207;-80
2023/12/03 02:06:13;;;;;;;8.18;7.47;;;-0.20;99.90;;;;;;5027554;28;20612;-79
2023/12/03 02:08:42;;;;;;;10.10;9.07;;;-0.20;99.90;;;;;;5018618;28;20215;-78
2023/12/03 02:11:10;;;;;;;7.68;6.90;;;-0.20;99.90;;;;;;5016088;28;20194;-79
2023/12/03 02:13:39;;;;;;;8.38;7.65;;;-0.20;99.90;;;;;;5019913;28;20208;-80
2023/12/03 02:16:08;;;;;;;9.63;7.57;;;-0.20;99.90;;;;;;5018381;28;20349;-81
2023/12/03 02:18:37;;;;;;;8.75;7.90;;;-0.20;99.90;;;;;;5018434;28;20207;-80
2023/12/03 02:21:08;;;;;;;7.97;7.20;;;-0.20;99.90;;;;;;5012981;28;20218;-80
2023/12/03 02:23:37;;;;;;;7.93;7.13;;;-0.20;99.90;;;;;;5017731;28;20196;-80
2023/12/03 02:26:06;;;;;;;8.82;8.02;;;-0.20;99.90;;;;;;5017842;28;20233;-79
2023/12/03 02:28:34;;;;;;;8.23;7.43;;;-0.20;99.90;;;;;;5015524;28;20215;-79
2023/12/03 02:31:03;;;;;;;8.38;7.53;;;-0.20;99.90;;;;;;5016874;28;20226;-79
2023/12/03 02:33:31;;;;;;;9.00;8.10;;;-0.10;99.90;;;;;;5018023;28;20258;-79
2023/12/03 02:36:01;;;;;;;9.20;8.15;;;-0.10;99.90;;;;;;5015205;28;20811;-80
2023/12/03 02:38:29;;;;;;;8.95;8.05;;;-0.20;99.90;;;;;;5015405;28;20233;-79
2023/12/03 02:40:59;;;;;;;8.55;7.65;;;-0.20;99.90;;;;;;5015324;28;20701;-79
2023/12/03 02:43:27;;;;;;;8.27;7.50;;;-0.10;99.90;;;;;;5015828;28;20301;-79
2023/12/03 02:45:55;;;;;;;9.23;8.40;;;-0.10;99.90;;;;;;5031608;28;20312;-78
2023/12/03 02:48:23;;;;;;;9.52;8.55;;;-0.10;99.90;;;;;;5014863;28;20200;-80
2023/12/03 02:50:52;;;;;;;8.05;6.93;;;0.00;99.90;;;;;;5032623;28;20201;-78
2023/12/03 02:53:20;;;;;;;9.05;8.20;;;-0.10;99.90;;;;;;5015204;28;20574;-80
2023/12/03 02:55:48;;;;;;;8.73;7.88;;;-0.10;99.90;;;;;;5016161;28;20775;-79
2023/12/03 02:58:17;;;;;;;8.35;7.55;;;-0.10;99.90;;;;;;5019594;28;20195;-80
2023/12/03 03:00:46;;;;;;;9.93;9.02;;;-0.10;99.90;;;;;;5017946;28;20245;-77
2023/12/03 03:03:14;;;;;;;9.27;8.48;;;-0.20;99.90;;;;;;5018370;28;20210;-79
2023/12/03 03:05:42;;;;;;;9.35;8.55;;;-0.10;99.90;;;;;;5018577;28;20226;-80
2023/12/03 03:08:10;;;;;;;8.63;7.82;;;-0.10;99.90;;;;;;5018849;28;20203;-79
2023/12/03 03:10:39;;;;;;;8.93;8.07;;;-0.10;99.90;;;;;;5018907;28;20289;-81
2023/12/03 03:13:08;;;;;;;8.48;7.60;;;-0.10;99.90;;;;;;5020153;28;20202;-78
2023/12/03 03:15:38;;;;;;;8.75;7.85;;;-0.10;99.90;;;;;;5017365;28;20225;-79
2023/12/03 03:18:06;;;;;;;9.45;8.55;;;-0.20;99.90;;;;;;5018354;28;20252;-79
2023/12/03 03:20:34;;;;;;;8.43;7.50;;;-0.10;99.90;;;;;;5018728;28;20707;-79
2023/12/03 03:23:03;;;;;;;8.50;7.80;;;-0.10;99.90;;;;;;5019971;28;20687;-79
2023/12/03 03:25:31;;;;;;;9.32;8.32;;;-0.10;99.90;;;;;;5017685;28;20218;-80
2023/12/03 03:27:59;;;;;;;9.27;8.35;;;-0.20;99.90;;;;;;5021185;28;20199;-79
2023/12/03 03:30:27;;;;;;;8.73;7.97;;;-0.20;99.90;;;;;;5019956;28;20202;-80
2023/12/03 03:32:57;;;;;;;9.25;8.40;;;-0.20;99.90;;;;;;5021474;28;20269;-80
2023/12/03 03:35:25;;;;;;;8.15;7.45;;;-0.10;99.90;;;;;;5020985;28;20306;-80
2023/12/03 03:37:52;;;;;;;8.60;7.80;;;-0.20;99.90;;;;;;5021310;28;20217;-80
2023/12/03 03:40:20;;;;;;;8.93;8.05;;;-0.10;99.90;;;;;;5020103;28;20720;-78
2023/12/03 03:42:48;;;;;;;9.27;8.25;;;-0.10;99.90;;;;;;5016840;28;20203;-78
2023/12/03 03:45:16;;;;;;;9.98;9.00;;;-0.20;99.90;;;;;;5017955;28;20214;-81
2023/12/03 03:47:45;;;;;;;8.55;7.75;;;-0.20;99.90;;;;;;5020630;28;20206;-80
2023/12/03 03:50:14;;;;;;;10.30;8.43;;;-0.10;99.90;;;;;;5021717;28;20198;-80
2023/12/03 03:52:44;;;;;;;8.70;8.00;;;-0.10;99.90;;;;;;5019343;28;20285;-79
2023/12/03 03:55:13;;;;;;;11.13;8.70;;;-0.20;99.90;;;;;;5021531;28;20680;-80
2023/12/03 03:57:41;;;;;;;9.23;8.35;;;-0.20;99.90;;;;;;5019157;28;20205;-80
2023/12/03 04:00:10;;;;;;;9.60;8.60;;;-0.30;99.90;;;;;;5017424;28;20219;-82
2023/12/03 04:02:39;;;;;;;10.43;9.23;;;-0.30;99.90;;;;;;5021778;28;20273;-80
2023/12/03 04:05:08;;;;;;;9.88;7.95;;;-0.40;99.90;;;;;;5019996;28;20282;-80
2023/12/03 04:07:38;;;;;;;10.23;8.50;;;-0.40;99.90;;;;;;5021119;28;20198;-80
2023/12/03 04:10:07;;;;;;;9.25;8.40;;;-0.50;99.90;;;;;;5020041;28;20209;-79
2023/12/03 04:12:35;;;;;;;9.90;8.90;;;-0.50;99.90;;;;;;5023779;28;20230;-80
2023/12/03 04:15:05;;;;;;;9.38;8.48;;;-0.50;99.90;;;;;;5022318;28;20241;-79
2023/12/03 04:17:34;;;;;;;8.88;8.05;;;-0.50;99.90;;;;;;5020888;28;20234;-79
2023/12/03 04:20:04;;;;;;;9.32;8.43;;;-0.50;99.90;;;;;;5021215;28;20225;-79
2023/12/03 04:22:32;;;;;;;8.82;8.05;;;-0.50;99.90;;;;;;5021026;28;20281;-80
2023/12/03 04:25:02;;;;;;;9.18;8.15;;;-0.60;99.90;;;;;;5022280;28;20198;-79
2023/12/03 04:27:30;;;;;;;10.70;8.70;;;-0.60;99.90;;;;;;5020387;28;20245;-79
2023/12/03 04:29:58;;;;;;;8.57;7.85;;;-0.70;99.90;;;;;;5018042;28;20194;-77
2023/12/03 04:32:27;;;;;;;10.48;8.07;;;-0.80;99.90;;;;;;5017036;28;20213;-77
2023/12/03 04:34:55;;;;;;;9.93;8.65;;;-0.80;99.90;;;;;;5017292;28;20199;-78
2023/12/03 04:37:24;;;;;;;9.27;8.40;;;-0.90;99.90;;;;;;5016118;28;20455;-80
2023/12/03 04:39:52;;;;;;;11.15;8.70;;;-1.00;99.90;;;;;;5020175;28;20217;-79
2023/12/03 04:42:21;;;;;;;11.50;10.30;;;-1.00;99.90;;;;;;5027744;28;20244;-78
2023/12/03 04:44:50;;;;;;;9.77;8.77;;;-1.00;99.90;;;;;;5020690;28;20195;-80
2023/12/03 04:47:18;;;;;;;9.30;8.35;;;-1.00;99.90;;;;;;5016470;28;20226;-79
2023/12/03 04:49:46;;;;;;;9.48;8.48;;;-1.00;99.90;;;;;;5017036;28;20979;-77
2023/12/03 04:52:14;;;;;;;9.90;9.00;;;-1.10;99.90;;;;;;5017198;28;20282;-80
2023/12/03 04:54:42;;;;;;;10.27;9.27;;;-1.20;99.90;;;;;;5019005;28;20207;-79
2023/12/03 04:57:11;;;;;;;10.20;9.20;;;-1.20;99.90;;;;;;5019370;28;20261;-79
2023/12/03 04:59:40;;;;;;;9.95;8.95;;;-1.10;99.90;;;;;;5017509;28;20205;-78
2023/12/03 05:02:08;;;;;;;11.75;9.15;;;-1.20;99.90;;;;;;5013756;28;20214;-79
2023/12/03 05:04:36;;;;;;;10.13;9.13;;;-1.10;99.90;;;;;;5013655;28;20206;-79
2023/12/03 05:07:05;;;;;;;10.75;9.02;;;-1.10;99.90;;;;;;5017251;28;20718;-79
2023/12/03 05:09:33;;;;;;;9.02;7.95;;;-1.20;99.90;;;;;;5021355;28;20206;-80
2023/12/03 05:12:01;;;;;;;9.98;8.35;;;-1.20;99.90;;;;;;5015976;28;20226;-76
2023/12/03 05:14:29;;;;;;;10.05;8.93;;;-1.20;99.90;;;;;;5016827;28;20199;-79
2023/12/03 05:16:59;;;;;;;9.60;8.50;;;-1.20;99.90;;;;;;5018930;28;20226;-77
2023/12/03 05:19:27;;;;;;;11.20;8.40;;;-1.20;99.90;;;;;;5016096;28;20202;-79
2023/12/03 05:21:56;;;;;;;8.90;7.97;;;-1.30;99.90;;;;;;5018191;28;20303;-78
2023/12/03 05:24:24;;;;;;;9.65;8.73;;;-1.30;99.90;;;;;;5017099;28;20297;-78
2023/12/03 05:26:52;;;;;;;11.10;8.20;;;-1.30;99.90;;;;;;5015155;28;20803;-79
2023/12/03 05:29:21;;;;;;;9.73;8.90;;;-1.40;99.90;;;;;;5017819;28;20712;-79
2023/12/03 05:31:50;;;;;;;10.32;9.40;;;-1.30;99.90;;;;;;5021105;28;20610;-79
2023/12/03 05:34:19;;;;;;;9.48;8.57;;;-1.30;99.90;;;;;;5000547;28;20329;-79
2023/12/03 05:36:48;;;;;;;9.18;7.75;;;-1.20;99.90;;;;;;5019500;28;20230;-78
2023/12/03 05:39:21;;;;;;;9.52;8.52;;;-1.30;99.90;;;;;;5016564;28;20194;-78
2023/12/03 05:41:49;;;;;;;9.55;8.70;;;-1.30;99.90;;;;;;5013828;28;20215;-79
2023/12/03 05:44:18;;;;;;;10.45;9.13;;;-1.30;99.90;;;;;;5011426;28;20306;-78
2023/12/03 05:46:46;;;;;;;10.35;9.35;;;-1.30;99.90;;;;;;5013022;28;20219;-76
2023/12/03 05:49:14;;;;;;;9.48;8.57;;;-1.30;99.90;;;;;;5018054;28;20213;-79
2023/12/03 05:51:44;;;;;;;9.88;8.98;;;-1.30;99.90;;;;;;5016646;28;20281;-79
2023/12/03 05:54:13;;;;;;;8.00;7.25;;;-1.30;99.90;;;;;;5020285;28;20571;-78
2023/12/03 05:56:41;;;;;;;9.95;8.93;;;-1.30;99.90;;;;;;5012306;28;20218;-79
2023/12/03 05:59:11;;;;;;;10.05;8.20;;;-1.30;99.90;;;;;;5014301;28;20202;-79
2023/12/03 06:01:39;;;;;;;9.07;8.38;;;-1.40;99.90;;;;;;5014200;28;20218;-78
2023/12/03 06:04:07;;;;;;;10.23;9.23;;;-1.50;99.90;;;;;;5015552;28;20741;-79
2023/12/03 06:06:36;;;;;;;10.95;8.70;;;-1.50;99.90;;;;;;5009836;28;20218;-79
2023/12/03 06:09:09;;;;;;;8.70;7.93;;;-1.50;99.90;;;;;;5016333;28;20207;-80
2023/12/03 06:11:37;;;;;;;9.80;8.80;;;-1.60;99.90;;;;;;5015582;28;20318;-78
2023/12/03 06:14:06;;;;;;;9.60;8.52;;;-1.60;99.90;;;;;;5013597;28;20739;-79
2023/12/03 06:16:34;;;;;;;9.68;8.77;;;-1.50;99.90;;;;;;5015096;28;20272;-80
2023/12/03 06:19:02;;;;;;;10.60;9.52;;;-1.60;99.90;;;;;;5016185;28;20206;-79
2023/12/03 06:21:30;;;;;;;10.10;9.10;;;-1.60;99.90;;;;;;5015825;28;20220;-79
2023/12/03 06:23:58;;;;;;;9.57;8.52;;;-1.50;99.90;;;;;;5017447;28;20195;-80
2023/12/03 06:26:28;;;;;;;11.40;10.20;;;-1.50;99.90;;;;;;5014470;28;20237;-80
2023/12/03 06:28:56;;;;;;;10.25;9.23;;;-1.50;99.90;;;;;;5015431;28;20214;-80
2023/12/03 06:31:24;;;;;;;9.88;8.57;;;-1.60;99.90;;;;;;5017815;28;20663;-77
2023/12/03 06:33:52;;;;;;;11.23;9.15;;;-1.60;99.90;;;;;;5022511;28;20203;-78
2023/12/03 06:36:21;;;;;;;9.95;8.95;;;-1.60;99.90;;;;;;5019445;28;20240;-79
2023/12/03 06:38:49;;;;;;;12.20;10.48;;;-1.60;99.90;;;;;;5018606;28;20207;-80
2023/12/03 06:41:17;;;;;;;11.65;9.52;;;-1.60;99.90;;;;;;5020311;28;20324;-78
2023/12/03 06:43:47;;;;;;;10.25;9.15;;;-1.60;99.90;;;;;;5020849;28;20277;-78
2023/12/03 06:46:16;;;;;;;9.88;8.75;;;-1.60;99.90;;;;;;5020051;28;20206;-79
2023/12/03 06:48:44;;;;;;;11.45;8.85;;;-1.70;99.90;;;;;;5016319;28;20830;-79
2023/12/03 06:51:12;;;;;;;11.18;9.32;;;-1.70;99.90;;;;;;5018075;28;20218;-79
2023/12/03 06:53:41;;;;;;;10.23;9.23;;;-1.70;99.90;;;;;;5020574;28;20225;-78
2023/12/03 06:56:11;;;;;;;9.63;8.60;;;-1.80;99.90;;;;;;5017791;28;20273;-79
2023/12/03 06:58:39;;;;;;;9.80;8.90;;;-1.90;99.90;;;;;;5034794;28;20256;-79
2023/12/03 07:01:09;;;;;;;11.05;8.85;;;-1.90;99.90;;;;;;5017611;28;20206;-81
2023/12/03 07:03:37;;;;;;;10.55;9.38;;;-1.90;99.90;;;;;;5019631;28;20258;-79
2023/12/03 07:06:07;;;;;;;11.10;8.52;;;-1.90;99.90;;;;;;5016829;28;20236;-79
2023/12/03 07:08:35;;;;;;;9.48;8.55;;;-2.00;99.90;;;;;;5016664;28;20282;-78
2023/12/03 07:11:03;;;;;;;10.00;9.00;;;-2.00;99.90;;;;;;5018845;28;20214;-78
2023/12/03 07:13:31;;;;;;;10.20;9.25;;;-2.00;99.90;;;;;;5022298;28;20355;-79
2023/12/03 07:16:00;;;;;;;11.15;10.05;;;-1.90;99.90;;;;;;5017804;28;20221;-78
2023/12/03 07:18:30;;;;;;;13.25;9.20;;;-1.90;99.90;;;;;;5019420;28;20743;-79
2023/12/03 07:20:59;;;;;;;10.45;9.30;;;-2.00;99.90;;;;;;5019095;28;20201;-79
2023/12/03 07:23:27;;;;;;;11.77;10.25;;;-1.90;99.90;;;;;;5019654;28;20317;-81
2023/12/03 07:25:55;;;;;;;9.50;8.65;;;-1.80;99.90;;;;;;5015954;28;20292;-80
2023/12/03 07:28:23;;;;;;;11.15;9.90;;;-1.80;99.90;;;;;;5024130;28;20218;-79
2023/12/03 07:30:51;;;;;;;10.68;9.23;;;-1.80;99.90;;;;;;5020057;28;20226;-80
2023/12/03 07:33:20;;;;;;;12.40;9.50;;;-1.70;99.90;;;;;;5018818;28;20207;-79
2023/12/03 07:35:49;;;;;;;11.38;9.43;;;-1.70;99.90;;;;;;5017731;28;20712;-77
2023/12/03 07:38:18;;;;;;;10.80;9.65;;;-1.70;99.90;;;;;;5016781;28;20625;-79
2023/12/03 07:40:46;;;;;;;13.25;10.05;;;-1.70;99.90;;;;;;5014542;28;20207;-79
2023/12/03 07:43:14;;;;;;;10.38;9.10;;;-1.70;99.90;;;;;;5017360;28;20211;-79
2023/12/03 07:45:42;;;;;;;9.95;8.88;;;-1.70;99.90;;;;;;5013282;28;20670;-79
2023/12/03 07:48:10;;;;;;;11.57;9.55;;;-1.70;99.90;;;;;;5016276;28;20255;-79
2023/12/03 07:50:38;;;;;;;12.07;10.38;;;-1.60;99.90;;;;;;5016639;28;20203;-78
2023/12/03 07:53:10;;;;;;;13.70;10.85;;;-1.50;99.90;;;;;;5021991;28;20257;-79
2023/12/03 07:55:38;;;;;;;11.50;9.65;;;-1.40;99.90;;;;;;5017551;28;20221;-79
2023/12/03 07:58:07;;;;;;;15.75;11.02;;;-1.20;99.90;;;;;;5020263;28;20274;-79
2023/12/03 08:00:35;;;;;;;13.05;9.50;;;-1.00;99.90;;;;;;5003849;28;20238;-78
2023/12/03 08:03:04;;;;;;;11.02;9.27;;;-0.90;99.90;;;;;;5016246;28;20298;-77
2023/12/03 08:05:32;;;;;;;11.88;9.10;;;-0.90;99.90;;;;;;5015074;28;20303;-77
2023/12/03 08:08:00;;;;;;;11.80;9.23;;;-1.00;99.90;;;;;;5018591;28;20687;-77
2023/12/03 08:10:30;;;;;;;12.07;9.60;;;-1.10;99.90;;;;;;5015162;28;20214;-78
2023/12/03 08:12:58;;;;;;;13.85;10.65;;;-1.20;99.90;;;;;;5013061;28;20249;-78
2023/12/03 08:15:26;;;;;;;11.27;10.02;;;-1.10;99.90;;;;;;5014349;28;20473;-79
2023/12/03 08:17:55;;;;;;;10.55;9.55;;;-1.10;99.90;;;;;;5012105;28;20300;-76
2023/12/03 08:20:23;;;;;;;13.90;10.85;;;-1.10;99.90;;;;;;5015791;28;20194;-78
2023/12/03 08:22:51;;;;;;;13.75;10.70;;;-1.10;99.90;;;;;;5014916;28;20301;-78
2023/12/03 08:25:19;;;;;;;11.02;9.55;;;-1.10;99.90;;;;;;5019694;28;20207;-78
2023/12/03 08:27:50;;;;;;;12.27;10.98;;;-1.00;99.90;;;;;;5011893;28;20206;-76
2023/12/03 08:30:19;;;;;;;10.55;9.45;;;-0.90;99.90;;;;;;5014966;28;20234;-77
2023/12/03 08:32:47;;;;;;;11.25;10.15;;;-0.80;99.90;;;;;;5015153;28;20660;-78
2023/12/03 08:35:15;;;;;;;12.13;10.10;;;-0.70;99.90;;;;;;5015007;28;20198;-78
2023/12/03 08:37:45;;;;;;;10.57;9.57;;;-0.70;99.90;;;;;;5017282;28;20210;-78
2023/12/03 08:40:13;;;;;;;11.00;9.88;;;-0.70;99.90;;;;;;5019196;28;20578;-79
2023/12/03 08:42:44;;;;;;;11.32;9.93;;;-0.50;99.90;;;;;;5021693;28;20244;-79
2023/12/03 08:45:14;;;;;;;11.75;9.23;;;-0.50;99.90;;;;;;5015793;28;20212;-78
2023/12/03 08:47:43;;;;;;;10.15;9.15;;;-0.60;99.90;;;;;;4999255;28;20198;-78
2023/12/03 08:50:12;;;;;;;13.02;10.50;;;-0.50;99.90;;;;;;5017808;28;20199;-79
2023/12/03 08:52:40;;;;;;;12.35;10.93;;;-0.40;99.90;;;;;;5015088;28;20466;-78
2023/12/03 08:55:09;;;;;;;11.57;10.10;;;-0.40;99.90;;;;;;5017432;28;20206;-78
2023/12/03 08:57:39;;;;;;;12.57;10.15;;;-0.30;99.90;;;;;;5016275;28;20203;-78
2023/12/03 09:00:10;;;;;;;11.55;10.35;;;-0.30;99.90;;;;;;5014906;28;20298;-78
2023/12/03 09:02:39;;;;;;;11.50;10.30;;;-0.20;99.90;;;;;;5019036;28;20206;-80
2023/12/03 09:05:08;;;;;;;11.30;10.23;;;-0.30;99.90;;;;;;5023047;28;20197;-78
2023/12/03 09:07:36;;;;;;;10.77;9.77;;;-0.30;99.90;;;;;;5016903;28;20206;-78
2023/12/03 09:10:05;;;;;;;12.50;11.20;;;-0.20;99.90;;;;;;5016569;28;20200;-78
2023/12/03 09:12:33;;;;;;;13.02;9.88;;;0.00;99.90;;;;;;5018509;28;20231;-79
2023/12/03 09:15:02;;;;;;;10.63;9.52;;;0.00;99.90;;;;;;5016280;28;20240;-78
2023/12/03 09:17:31;;;;;;;12.55;10.35;;;-0.10;99.90;;;;;;5018739;28;20210;-79
2023/12/03 09:20:01;;;;;;;13.38;12.07;;;0.00;99.90;;;;;;5015347;28;20452;-79
2023/12/03 09:22:30;;;;;;;12.65;10.82;;;0.00;99.90;;;;;;5018295;28;20248;-80
2023/12/03 09:24:59;;;;;;;11.88;10.65;;;0.20;99.90;;;;;;5015529;28;20228;-79
2023/12/03 09:27:27;;;;;;;11.23;9.85;;;0.40;99.90;;;;;;5012238;28;20223;-77
2023/12/03 09:29:56;;;;;;;14.05;12.57;;;0.50;99.90;;;;;;5016076;28;20198;-78
2023/12/03 09:32:24;;;;;;;13.65;12.15;;;0.90;99.90;;;;;;5016258;28;20198;-77
2023/12/03 09:34:52;;;;;;;11.73;10.63;;;1.40;99.90;;;;;;5017603;28;20202;-79
2023/12/03 09:37:22;;;;;;;11.63;10.43;;;1.60;99.90;;;;;;5016628;28;20324;-79
2023/12/03 09:39:50;;;;;;;13.98;10.77;;;1.90;99.90;;;;;;5019881;28;20210;-78
2023/12/03 09:42:22;;;;;;;10.57;9.18;;;2.30;99.90;;;;;;5012897;28;20664;-77
2023/12/03 09:44:59;;;;;;;10.43;9.43;;;2.30;99.90;;;;;;5013455;28;20720;-78
2023/12/03 09:47:28;;;;;;;12.32;9.85;;;2.70;99.90;;;;;;5016476;28;20198;-77
2023/12/03 09:49:56;;;;;;;11.70;10.68;;;3.00;99.90;;;;;;5014692;28;20290;-78
2023/12/03 09:52:29;;;;;;;11.38;10.23;;;3.50;99.90;;;;;;5012633;28;20675;-78
2023/12/03 09:54:58;;;;;;;15.25;10.40;;;3.70;99.90;;;;;;5017403;28;20202;-78
2023/12/03 09:57:27;;;;;;;11.57;10.65;;;3.90;99.90;;;;;;5016661;28;20248;-77
2023/12/03 09:59:58;;;;;;;11.60;9.68;;;4.50;99.90;;;;;;5015260;28;20202;-78
2023/12/03 10:02:29;;;;;;;10.53;9.60;;;5.10;99.90;;;;;;5012004;28;20218;-79
2023/12/03 10:04:58;;;;;;;11.13;10.13;;;5.50;99.90;;;;;;5011023;28;20492;-77
2023/12/03 10:07:30;;;;;;;10.30;9.27;;;5.30;99.90;;;;;;5020039;28;20565;-78
2023/12/03 10:09:59;;;;;;;10.70;9.80;;;5.40;99.90;;;;;;5012119;28;20461;-76
2023/12/03 10:12:40;;;;;;;10.63;9.70;;;5.40;94.60;;;;;;5021440;28;20487;-78
2023/12/03 10:15:10;;;;;;;11.03;10.13;;;5.90;94.60;;;;;;5021491;28;21236;-78
2023/12/03 10:17:39;;;;;;;11.57;10.43;;;6.10;92.40;;;;;;5019406;28;21025;-79
2023/12/03 10:20:27;;;;;;;10.10;8.20;;;7.00;93.90;;;;;;5021838;28;20536;-79
2023/12/03 10:23:00;;;;;;;10.20;9.30;;;7.80;88.90;;;;;;5017392;28;20465;-79
2023/12/03 10:25:31;;;;;;;9.70;8.80;;;8.20;77.00;;;;;;5019614;28;20539;-80
2023/12/03 10:28:00;;;;;;;9.90;9.00;;;8.80;72.30;;;;;;5017892;28;20452;-78
2023/12/03 10:30:29;;;;;;;10.67;9.77;;;9.60;69.00;;;;;;5018284;28;20467;-78
2023/12/03 10:32:57;;;;;;;11.00;9.90;;;9.50;58.60;;;;;;5020095;28;20459;-78
2023/12/03 10:35:27;;;;;;;11.20;10.20;;;9.90;56.70;;;;;;5019618;28;20508;-78
2023/12/03 10:37:56;;;;;;;11.13;10.00;;;8.90;44.50;;;;;;5016616;28;20552;-79
2023/12/03 10:40:25;;;;;;;11.17;10.10;;;8.10;36.10;;;;;;5020474;28;20486;-79
2023/12/03 10:42:53;;;;;;;11.00;10.00;;;7.60;33.20;;;;;;5025622;28;20520;-80
2023/12/03 10:45:22;;;;;;;9.60;8.80;;;8.10;41.40;;;;;;5021722;28;20520;-78
2023/12/03 10:47:53;;;;;;;10.93;9.93;;;7.20;30.20;;;;;;5019700;28;20465;-78
2023/12/03 10:50:22;;;;;;;11.57;9.63;;;6.10;22.40;;;;;;5022979;28;20456;-79
2023/12/03 10:52:51;;;;;;;9.90;9.10;;;5.50;19.50;;;;;;5023692;28;20460;-79
2023/12/03 10:55:20;;;;;;;8.60;7.73;;;5.50;24.10;;;;;;5021851;28;20548;-79
2023/12/03 10:57:59;;;;;;;10.80;8.73;;;5.50;26.00;;;;;;5025502;28;20457;-79
2023/12/03 11:00:36;;;;;;;12.57;11.38;;;5.30;27.50;;;;;;5015990;28;20450;-81
2023/12/03 11:03:14;;;;;;;10.10;8.93;;;5.10;27.10;;;;;;5015428;28;20301;-80
2023/12/03 11:05:52;;;;;;;9.27;8.50;;;5.30;28.60;;;;;;5016453;28;20528;-79
2023/12/03 11:08:22;;;;;;;10.23;9.30;;;5.20;28.40;;;;;;5015962;28;20511;-77
2023/12/03 11:10:53;;;;;;;9.13;8.23;;;5.40;31.40;;;;;;5016492;28;20457;-78
2023/12/03 11:13:23;;;;;;;9.27;8.40;;;5.50;29.00;;;;;;5017456;28;20457;-78
2023/12/03 11:16:04;;;;;;;9.67;8.70;;;5.40;27.60;;;;;;5018984;28;20501;-77
2023/12/03 11:18:36;;;;;;;8.67;7.97;;;5.20;28.30;;;;;;5018294;28;20465;-79
2023/12/03 11:21:11;;;;;;;10.48;9.55;;;5.00;27.10;;;;;;5015786;28;20457;-78
2023/12/03 11:23:52;;;;;;;10.63;9.73;;;4.60;24.80;;;;;;5020665;28;20210;-80
2023/12/03 11:26:25;;;;;;;10.38;9.48;;;4.50;26.70;;;;;;5020460;28;20219;-77
2023/12/03 11:28:54;;;;;;;9.73;8.85;;;4.40;28.40;;;;;;5018365;28;20195;-78
2023/12/03 11:31:25;;;;;;;9.90;9.15;;;4.30;29.40;;;;;;5017254;28;20207;-78
2023/12/03 11:33:58;;;;;;;9.48;8.55;;;4.40;35.20;;;;;;5017869;28;20209;-79
2023/12/03 11:36:37;;;;;;;9.63;8.82;;;4.30;34.10;;;;;;5015937;28;20264;-78
2023/12/03 11:39:07;;;;;;;9.63;8.75;;;4.20;34.20;;;;;;5019125;28;20213;-79
2023/12/03 11:41:40;;;;;;;9.57;8.77;;;4.20;35.60;;;;;;5021758;28;20203;-76
2023/12/03 11:44:23;;;;;;;9.53;8.73;;;4.20;38.60;;;;;;5016312;28;20567;-78
2023/12/03 11:47:02;;;;;;;8.95;8.38;;;4.10;37.80;;;;;;5007081;28;20554;-79
2023/12/03 11:49:33;;;;;;;9.02;8.27;;;3.70;29.70;;;;;;5015281;28;20195;-79
2023/12/03 11:52:03;;;;;;;8.73;7.93;;;4.00;37.70;;;;;;5015464;28;20732;-79
2023/12/03 11:54:38;;;;;;;8.18;7.47;;;4.10;40.60;;;;;;5018999;28;20207;-79
2023/12/03 11:57:14;;;;;;;9.13;8.23;;;4.00;42.30;;;;;;5017056;28;20305;-79
2023/12/03 11:59:44;;;;;;;8.73;7.93;;;4.10;44.10;;;;;;5020320;28;20298;-78
2023/12/03 12:02:13;;;;;;;8.27;7.63;;;4.20;47.50;;;;;;5018397;28;20203;-79
2023/12/03 12:04:41;;;;;;;10.18;9.30;;;4.30;45.90;;;;;;5019249;28;20218;-79
2023/12/03 12:07:14;;;;;;;8.68;7.88;;;4.20;41.00;;;;;;5017873;28;20457;-79
2023/12/03 12:09:43;;;;;;;8.88;8.07;;;4.20;43.00;;;;;;5017997;28;20202;-80
2023/12/03 12:12:12;;;;;;;8.85;8.07;;;4.00;38.50;;;;;;5017407;28;20235;-79
2023/12/03 12:14:42;;;;;;;9.00;8.30;;;3.90;34.70;;;;;;5023077;28;20266;-79
2023/12/03 12:17:10;;;;;;;8.60;7.57;;;3.80;35.50;;;;;;5016648;28;20315;-79
2023/12/03 12:19:45;;;;;;;10.00;8.73;;;4.00;44.60;;;;;;5021904;28;20217;-79
2023/12/03 12:22:14;;;;;;;9.55;8.70;;;3.90;38.10;;;;;;5021468;28;20202;-79
2023/12/03 12:24:42;;;;;;;7.82;7.22;;;3.90;36.50;;;;;;5015245;28;20238;-78
2023/12/03 12:27:11;;;;;;;8.35;7.60;;;3.90;39.40;;;;;;5018668;28;20257;-78
2023/12/03 12:29:39;;;;;;;8.27;7.50;;;3.80;36.70;;;;;;5018861;28;20237;-78
2023/12/03 12:32:09;;;;;;;9.02;8.30;;;3.90;39.40;;;;;;5013263;28;20276;-79
2023/12/03 12:34:38;;;;;;;9.13;8.27;;;3.90;37.30;;;;;;5012144;28;20673;-78
2023/12/03 12:37:07;;;;;;;8.40;7.72;;;4.00;42.40;;;;;;5018959;28;20563;-78
2023/12/03 12:39:36;;;;;;;8.63;7.72;;;3.90;39.30;;;;;;5013922;28;20194;-80
2023/12/03 12:42:04;;;;;;;10.98;9.80;;;4.00;41.50;;;;;;5016593;28;20206;-77
2023/12/03 12:44:42;;;;;;;8.32;7.70;;;3.90;40.40;;;;;;5017766;28;20210;-78
2023/12/03 12:47:18;;;;;;;9.55;8.73;;;4.00;36.60;;;;;;5016973;28;20229;-79
2023/12/03 12:49:54;;;;;;;10.40;9.60;;;3.90;42.00;;;;;;5016162;28;20578;-77
2023/12/03 12:52:24;;;;;;;10.40;9.25;;;4.00;46.60;;;;;;5017165;28;20248;-79
2023/12/03 12:54:54;;;;;;;8.85;8.15;;;3.90;43.60;;;;;;5009018;28;23331;-78
2023/12/03 12:57:31;;;;;;;9.98;9.10;;;4.10;49.50;;;;;;5014514;28;20225;-79